sensor_id;sensor_type;location;lat;lon;timestamp;temperature;humidity
20726;DHT22;10524;48.132;8.518;2023-02-21T00:02:14;-1.90;99.90
20726;DHT22;10524;48.132;8.518;2023-02-21T00:04:58;-1.90;99.90
20726;DHT22;10524;48.132;8.518;2023-02-21T00:07:43;-1.90;99.90
20726;DHT22;10524;48.132;8.518;2023-02-21T00:10:27;-1.80;99.90
20726;DHT22;10524;48.132;8.518;2023-02-21T00:13:11;-1.90;99.90
20726;DHT22;10524;48.132;8.518;2023-02-21T00:15:56;-1.90;99.90
20726;DHT22;10524;48.132;8.518;2023-02-21T00:18:40;-1.80;99.90
20726;DHT22;10524;48.132;8.518;2023-02-21T00:21:27;-1.90;99.90
20726;DHT22;10524;48.132;8.518;2023-02-21T00:24:14;-2.00;99.90
20726;DHT22;10524;48.132;8.518;2023-02-21T00:26:59;-2.20;99.90
20726;DHT22;10524;48.132;8.518;2023-02-21T00:29:43;-2.20;99.90
20726;DHT22;10524;48.132;8.518;2023-02-21T00:32:27;-2.20;99.90
20726;DHT22;10524;48.132;8.518;2023-02-21T00:35:11;-2.30;99.90
20726;DHT22;10524;48.132;8.518;2023-02-21T00:37:55;-2.30;99.90
20726;DHT22;10524;48.132;8.518;2023-02-21T00:40:39;-2.10;99.90
20726;DHT22;10524;48.132;8.518;2023-02-21T00:43:31;-2.10;99.90
20726;DHT22;10524;48.132;8.518;2023-02-21T00:46:16;-2.20;99.90
20726;DHT22;10524;48.132;8.518;2023-02-21T00:49:00;-2.30;99.90
20726;DHT22;10524;48.132;8.518;2023-02-21T00:51:45;-2.40;99.90
20726;DHT22;10524;48.132;8.518;2023-02-21T00:54:29;-2.40;99.90
20726;DHT22;10524;48.132;8.518;2023-02-21T00:57:13;-2.50;99.90
20726;DHT22;10524;48.132;8.518;2023-02-21T00:59:57;-2.50;99.90
20726;DHT22;10524;48.132;8.518;2023-02-21T01:02:42;-2.50;99.90
20726;DHT22;10524;48.132;8.518;2023-02-21T01:05:26;-2.60;99.90
20726;DHT22;10524;48.132;8.518;2023-02-21T01:08:10;-2.60;99.90
20726;DHT22;10524;48.132;8.518;2023-02-21T01:10:54;-2.60;99.90
20726;DHT22;10524;48.132;8.518;2023-02-21T01:13:39;-2.60;99.90
20726;DHT22;10524;48.132;8.518;2023-02-21T01:16:23;-2.60;99.90
20726;DHT22;10524;48.132;8.518;2023-02-21T01:19:07;-2.50;99.90
20726;DHT22;10524;48.132;8.518;2023-02-21T01:21:51;-2.70;99.90
20726;DHT22;10524;48.132;8.518;2023-02-21T01:24:35;-2.60;99.90
20726;DHT22;10524;48.132;8.518;2023-02-21T01:27:19;-2.70;99.90
20726;DHT22;10524;48.132;8.518;2023-02-21T01:30:03;-2.70;99.90
20726;DHT22;10524;48.132;8.518;2023-02-21T01:32:48;-2.70;99.90
20726;DHT22;10524;48.132;8.518;2023-02-21T01:35:32;-2.60;99.90
20726;DHT22;10524;48.132;8.518;2023-02-21T01:38:16;-2.50;99.90
20726;DHT22;10524;48.132;8.518;2023-02-21T01:41:00;-2.60;99.90
20726;DHT22;10524;48.132;8.518;2023-02-21T01:47:14;-2.80;99.90
20726;DHT22;10524;48.132;8.518;2023-02-21T01:50:00;-2.80;99.90
20726;DHT22;10524;48.132;8.518;2023-02-21T01:52:45;-2.80;99.90
20726;DHT22;10524;48.132;8.518;2023-02-21T01:55:31;-2.70;99.90
20726;DHT22;10524;48.132;8.518;2023-02-21T01:58:17;-2.70;99.90
20726;DHT22;10524;48.132;8.518;2023-02-21T02:01:03;-2.70;99.90
20726;DHT22;10524;48.132;8.518;2023-02-21T02:03:47;-2.60;99.90
20726;DHT22;10524;48.132;8.518;2023-02-21T02:06:33;-2.50;99.90
20726;DHT22;10524;48.132;8.518;2023-02-21T02:09:19;-2.70;99.90
20726;DHT22;10524;48.132;8.518;2023-02-21T02:15:28;-2.90;99.90
20726;DHT22;10524;48.132;8.518;2023-02-21T02:40:57;-3.10;99.90
20726;DHT22;10524;48.132;8.518;2023-02-21T02:46:13;-2.90;99.90
20726;DHT22;10524;48.132;8.518;2023-02-21T02:48:43;-2.70;99.90
20726;DHT22;10524;48.132;8.518;2023-02-21T02:51:13;-2.80;99.90
20726;DHT22;10524;48.132;8.518;2023-02-21T02:53:40;-2.90;99.90
20726;DHT22;10524;48.132;8.518;2023-02-21T02:56:08;-3.00;99.90
20726;DHT22;10524;48.132;8.518;2023-02-21T02:58:57;-3.20;99.90
20726;DHT22;10524;48.132;8.518;2023-02-21T03:01:36;-3.30;99.90
20726;DHT22;10524;48.132;8.518;2023-02-21T03:15:27;-3.40;99.90
20726;DHT22;10524;48.132;8.518;2023-02-21T03:18:11;-3.40;99.90
20726;DHT22;10524;48.132;8.518;2023-02-21T03:20:42;-3.40;99.90
20726;DHT22;10524;48.132;8.518;2023-02-21T03:23:10;-3.40;99.90
20726;DHT22;10524;48.132;8.518;2023-02-21T03:25:38;-3.40;99.90
20726;DHT22;10524;48.132;8.518;2023-02-21T03:28:05;-3.40;99.90
20726;DHT22;10524;48.132;8.518;2023-02-21T03:30:31;-3.40;99.90
20726;DHT22;10524;48.132;8.518;2023-02-21T03:32:57;-3.40;99.90
20726;DHT22;10524;48.132;8.518;2023-02-21T03:35:23;-3.40;99.90
20726;DHT22;10524;48.132;8.518;2023-02-21T03:37:53;-3.50;99.90
20726;DHT22;10524;48.132;8.518;2023-02-21T03:40:31;-3.50;99.90
20726;DHT22;10524;48.132;8.518;2023-02-21T03:42:59;-3.50;99.90
20726;DHT22;10524;48.132;8.518;2023-02-21T03:45:26;-3.50;99.90
20726;DHT22;10524;48.132;8.518;2023-02-21T03:47:51;-3.50;99.90
20726;DHT22;10524;48.132;8.518;2023-02-21T03:50:17;-3.50;99.90
20726;DHT22;10524;48.132;8.518;2023-02-21T03:52:43;-3.50;99.90
20726;DHT22;10524;48.132;8.518;2023-02-21T03:55:09;-3.50;99.90
20726;DHT22;10524;48.132;8.518;2023-02-21T03:57:35;-3.50;99.90
20726;DHT22;10524;48.132;8.518;2023-02-21T04:00:00;-3.30;99.90
20726;DHT22;10524;48.132;8.518;2023-02-21T04:02:26;-3.20;99.90
20726;DHT22;10524;48.132;8.518;2023-02-21T04:04:52;-3.20;99.90
20726;DHT22;10524;48.132;8.518;2023-02-21T04:07:19;-3.30;99.90
20726;DHT22;10524;48.132;8.518;2023-02-21T04:09:46;-3.40;99.90
20726;DHT22;10524;48.132;8.518;2023-02-21T04:12:12;-3.40;99.90
20726;DHT22;10524;48.132;8.518;2023-02-21T04:14:38;-3.40;99.90
20726;DHT22;10524;48.132;8.518;2023-02-21T04:17:04;-3.20;99.90
20726;DHT22;10524;48.132;8.518;2023-02-21T04:19:29;-3.30;99.90
20726;DHT22;10524;48.132;8.518;2023-02-21T04:21:55;-3.40;99.90
20726;DHT22;10524;48.132;8.518;2023-02-21T04:24:21;-3.50;99.90
20726;DHT22;10524;48.132;8.518;2023-02-21T04:26:47;-3.50;99.90
20726;DHT22;10524;48.132;8.518;2023-02-21T04:29:12;-3.50;99.90
20726;DHT22;10524;48.132;8.518;2023-02-21T04:31:38;-3.50;99.90
20726;DHT22;10524;48.132;8.518;2023-02-21T04:34:04;-3.40;99.90
20726;DHT22;10524;48.132;8.518;2023-02-21T04:36:29;-3.50;99.90
20726;DHT22;10524;48.132;8.518;2023-02-21T04:38:55;-3.50;99.90
20726;DHT22;10524;48.132;8.518;2023-02-21T04:41:21;-3.40;99.90
20726;DHT22;10524;48.132;8.518;2023-02-21T04:43:47;-3.30;99.90
20726;DHT22;10524;48.132;8.518;2023-02-21T04:46:14;-3.20;99.90
20726;DHT22;10524;48.132;8.518;2023-02-21T04:48:45;-3.30;99.90
20726;DHT22;10524;48.132;8.518;2023-02-21T04:51:12;-3.30;99.90
20726;DHT22;10524;48.132;8.518;2023-02-21T04:53:38;-3.40;99.90
20726;DHT22;10524;48.132;8.518;2023-02-21T04:56:04;-3.60;99.90
20726;DHT22;10524;48.132;8.518;2023-02-21T04:58:29;-3.60;99.90
20726;DHT22;10524;48.132;8.518;2023-02-21T05:00:55;-3.70;99.90
20726;DHT22;10524;48.132;8.518;2023-02-21T05:03:21;-3.70;99.90
20726;DHT22;10524;48.132;8.518;2023-02-21T05:05:46;-3.70;99.90
20726;DHT22;10524;48.132;8.518;2023-02-21T05:08:12;-3.70;99.90
20726;DHT22;10524;48.132;8.518;2023-02-21T05:10:38;-3.80;99.90
20726;DHT22;10524;48.132;8.518;2023-02-21T05:13:03;-3.80;99.90
20726;DHT22;10524;48.132;8.518;2023-02-21T05:15:29;-3.80;99.90
20726;DHT22;10524;48.132;8.518;2023-02-21T05:17:55;-3.80;99.90
20726;DHT22;10524;48.132;8.518;2023-02-21T05:20:20;-3.60;99.90
20726;DHT22;10524;48.132;8.518;2023-02-21T05:22:47;-3.50;99.90
20726;DHT22;10524;48.132;8.518;2023-02-21T05:27:41;-3.60;99.90
20726;DHT22;10524;48.132;8.518;2023-02-21T05:30:07;-3.70;99.90
20726;DHT22;10524;48.132;8.518;2023-02-21T05:32:33;-3.70;99.90
20726;DHT22;10524;48.132;8.518;2023-02-21T05:34:58;-3.70;99.90
20726;DHT22;10524;48.132;8.518;2023-02-21T05:37:24;-3.70;99.90
20726;DHT22;10524;48.132;8.518;2023-02-21T05:39:50;-3.50;99.90
20726;DHT22;10524;48.132;8.518;2023-02-21T05:42:15;-3.40;99.90
20726;DHT22;10524;48.132;8.518;2023-02-21T05:44:45;-3.30;99.90
20726;DHT22;10524;48.132;8.518;2023-02-21T05:47:12;-3.40;99.90
20726;DHT22;10524;48.132;8.518;2023-02-21T05:49:37;-3.50;99.90
20726;DHT22;10524;48.132;8.518;2023-02-21T05:52:03;-3.60;99.90
20726;DHT22;10524;48.132;8.518;2023-02-21T05:54:29;-3.70;99.90
20726;DHT22;10524;48.132;8.518;2023-02-21T05:56:55;-3.80;99.90
20726;DHT22;10524;48.132;8.518;2023-02-21T05:59:22;-3.90;99.90
20726;DHT22;10524;48.132;8.518;2023-02-21T06:01:48;-3.90;99.90
20726;DHT22;10524;48.132;8.518;2023-02-21T06:04:14;-3.90;99.90
20726;DHT22;10524;48.132;8.518;2023-02-21T06:06:40;-3.90;99.90
20726;DHT22;10524;48.132;8.518;2023-02-21T06:09:07;-3.70;99.90
20726;DHT22;10524;48.132;8.518;2023-02-21T06:11:35;-3.60;99.90
20726;DHT22;10524;48.132;8.518;2023-02-21T06:14:06;-3.50;99.90
20726;DHT22;10524;48.132;8.518;2023-02-21T06:16:34;-3.50;99.90
20726;DHT22;10524;48.132;8.518;2023-02-21T06:19:00;-3.70;99.90
20726;DHT22;10524;48.132;8.518;2023-02-21T06:21:25;-3.70;99.90
20726;DHT22;10524;48.132;8.518;2023-02-21T06:23:51;-3.80;99.90
20726;DHT22;10524;48.132;8.518;2023-02-21T06:26:20;-3.70;99.90
20726;DHT22;10524;48.132;8.518;2023-02-21T06:28:46;-3.70;99.90
20726;DHT22;10524;48.132;8.518;2023-02-21T06:31:12;-3.70;99.90
20726;DHT22;10524;48.132;8.518;2023-02-21T06:33:38;-3.70;99.90
20726;DHT22;10524;48.132;8.518;2023-02-21T06:36:12;-3.60;99.90
20726;DHT22;10524;48.132;8.518;2023-02-21T06:38:38;-3.40;99.90
20726;DHT22;10524;48.132;8.518;2023-02-21T06:41:05;-3.30;99.90
20726;DHT22;10524;48.132;8.518;2023-02-21T06:43:31;-3.20;99.90
20726;DHT22;10524;48.132;8.518;2023-02-21T06:45:57;-3.20;99.90
20726;DHT22;10524;48.132;8.518;2023-02-21T06:48:22;-3.10;99.90
20726;DHT22;10524;48.132;8.518;2023-02-21T06:50:48;-3.00;99.90
20726;DHT22;10524;48.132;8.518;2023-02-21T06:53:14;-2.90;99.90
20726;DHT22;10524;48.132;8.518;2023-02-21T06:55:39;-2.70;99.90
20726;DHT22;10524;48.132;8.518;2023-02-21T06:58:05;-2.60;99.90
20726;DHT22;10524;48.132;8.518;2023-02-21T07:00:31;-2.40;99.90
20726;DHT22;10524;48.132;8.518;2023-02-21T07:02:56;-2.30;99.90
20726;DHT22;10524;48.132;8.518;2023-02-21T07:05:22;-2.20;99.90
20726;DHT22;10524;48.132;8.518;2023-02-21T07:07:47;-2.10;99.90
20726;DHT22;10524;48.132;8.518;2023-02-21T07:10:13;-2.00;99.90
20726;DHT22;10524;48.132;8.518;2023-02-21T07:12:39;-1.90;99.90
20726;DHT22;10524;48.132;8.518;2023-02-21T07:15:05;-1.70;99.90
20726;DHT22;10524;48.132;8.518;2023-02-21T07:17:31;-1.60;99.90
20726;DHT22;10524;48.132;8.518;2023-02-21T07:19:57;-1.40;99.90
20726;DHT22;10524;48.132;8.518;2023-02-21T07:22:22;-1.30;99.90
20726;DHT22;10524;48.132;8.518;2023-02-21T07:24:52;-1.00;99.90
20726;DHT22;10524;48.132;8.518;2023-02-21T07:27:18;-0.60;99.90
20726;DHT22;10524;48.132;8.518;2023-02-21T07:29:49;1.50;99.90
20726;DHT22;10524;48.132;8.518;2023-02-21T07:32:15;4.60;99.90
20726;DHT22;10524;48.132;8.518;2023-02-21T07:34:41;7.40;99.90
20726;DHT22;10524;48.132;8.518;2023-02-21T07:37:07;9.30;99.90
20726;DHT22;10524;48.132;8.518;2023-02-21T07:39:32;11.00;99.90
20726;DHT22;10524;48.132;8.518;2023-02-21T07:41:58;12.10;99.90
20726;DHT22;10524;48.132;8.518;2023-02-21T07:44:24;13.40;99.90
20726;DHT22;10524;48.132;8.518;2023-02-21T07:46:49;15.00;99.90
20726;DHT22;10524;48.132;8.518;2023-02-21T07:49:15;16.30;99.90
20726;DHT22;10524;48.132;8.518;2023-02-21T07:51:41;16.50;99.90
20726;DHT22;10524;48.132;8.518;2023-02-21T07:54:06;16.60;99.90
20726;DHT22;10524;48.132;8.518;2023-02-21T07:56:32;16.00;99.90
20726;DHT22;10524;48.132;8.518;2023-02-21T07:58:58;15.30;99.90
20726;DHT22;10524;48.132;8.518;2023-02-21T08:01:25;15.60;99.90
20726;DHT22;10524;48.132;8.518;2023-02-21T08:03:51;15.70;99.90
20726;DHT22;10524;48.132;8.518;2023-02-21T08:06:17;15.90;99.90
20726;DHT22;10524;48.132;8.518;2023-02-21T08:08:44;16.30;99.90
20726;DHT22;10524;48.132;8.518;2023-02-21T08:11:09;17.90;99.90
20726;DHT22;10524;48.132;8.518;2023-02-21T08:13:35;19.40;99.00
20726;DHT22;10524;48.132;8.518;2023-02-21T08:16:01;20.30;97.30
20726;DHT22;10524;48.132;8.518;2023-02-21T08:18:28;20.30;96.20
20726;DHT22;10524;48.132;8.518;2023-02-21T08:20:55;19.90;96.20
20726;DHT22;10524;48.132;8.518;2023-02-21T08:23:22;18.90;96.50
20726;DHT22;10524;48.132;8.518;2023-02-21T08:25:48;18.20;96.90
20726;DHT22;10524;48.132;8.518;2023-02-21T08:28:14;18.00;97.40
20726;DHT22;10524;48.132;8.518;2023-02-21T08:30:40;18.50;96.90
20726;DHT22;10524;48.132;8.518;2023-02-21T08:33:05;18.60;96.90
20726;DHT22;10524;48.132;8.518;2023-02-21T08:35:31;18.30;97.00
20726;DHT22;10524;48.132;8.518;2023-02-21T08:37:57;18.30;97.00
20726;DHT22;10524;48.132;8.518;2023-02-21T08:40:28;19.00;96.90
20726;DHT22;10524;48.132;8.518;2023-02-21T08:42:55;20.60;96.20
20726;DHT22;10524;48.132;8.518;2023-02-21T08:45:23;22.40;94.90
20726;DHT22;10524;48.132;8.518;2023-02-21T08:47:53;23.90;93.90
20726;DHT22;10524;48.132;8.518;2023-02-21T08:50:21;25.10;92.40
20726;DHT22;10524;48.132;8.518;2023-02-21T08:52:48;26.20;91.20
20726;DHT22;10524;48.132;8.518;2023-02-21T08:55:14;26.80;90.20
20726;DHT22;10524;48.132;8.518;2023-02-21T08:57:40;27.30;88.70
20726;DHT22;10524;48.132;8.518;2023-02-21T09:00:07;27.60;86.50
20726;DHT22;10524;48.132;8.518;2023-02-21T09:02:36;26.10;86.30
20726;DHT22;10524;48.132;8.518;2023-02-21T09:05:14;25.40;87.80
20726;DHT22;10524;48.132;8.518;2023-02-21T09:07:41;25.20;87.20
20726;DHT22;10524;48.132;8.518;2023-02-21T09:10:08;26.70;85.30
20726;DHT22;10524;48.132;8.518;2023-02-21T09:12:35;25.00;85.80
20726;DHT22;10524;48.132;8.518;2023-02-21T09:15:01;24.00;87.90
20726;DHT22;10524;48.132;8.518;2023-02-21T09:17:27;23.80;88.50
20726;DHT22;10524;48.132;8.518;2023-02-21T09:19:52;24.20;88.40
20726;DHT22;10524;48.132;8.518;2023-02-21T09:22:18;24.20;88.30
20726;DHT22;10524;48.132;8.518;2023-02-21T09:24:44;23.60;89.10
20726;DHT22;10524;48.132;8.518;2023-02-21T09:27:09;23.00;90.00
20726;DHT22;10524;48.132;8.518;2023-02-21T09:29:35;23.30;88.60
20726;DHT22;10524;48.132;8.518;2023-02-21T09:32:02;23.20;88.70
20726;DHT22;10524;48.132;8.518;2023-02-21T09:34:29;24.10;87.70
20726;DHT22;10524;48.132;8.518;2023-02-21T09:36:55;24.70;87.60
20726;DHT22;10524;48.132;8.518;2023-02-21T09:39:22;25.60;87.30
20726;DHT22;10524;48.132;8.518;2023-02-21T09:41:48;25.40;84.90
20726;DHT22;10524;48.132;8.518;2023-02-21T09:44:20;24.50;85.90
20726;DHT22;10524;48.132;8.518;2023-02-21T09:46:53;24.30;85.70
20726;DHT22;10524;48.132;8.518;2023-02-21T09:49:24;24.30;84.40
20726;DHT22;10524;48.132;8.518;2023-02-21T09:51:50;24.40;83.90
20726;DHT22;10524;48.132;8.518;2023-02-21T09:54:24;24.60;82.20
20726;DHT22;10524;48.132;8.518;2023-02-21T09:56:50;24.80;80.70
20726;DHT22;10524;48.132;8.518;2023-02-21T09:59:16;24.60;80.40
20726;DHT22;10524;48.132;8.518;2023-02-21T10:07:23;23.90;80.90
20726;DHT22;10524;48.132;8.518;2023-02-21T10:09:53;24.00;80.90
20726;DHT22;10524;48.132;8.518;2023-02-21T10:12:51;24.60;78.90
20726;DHT22;10524;48.132;8.518;2023-02-21T10:20:37;25.10;76.20
20726;DHT22;10524;48.132;8.518;2023-02-21T10:23:15;25.40;75.10
20726;DHT22;10524;48.132;8.518;2023-02-21T10:25:45;25.20;75.00
20726;DHT22;10524;48.132;8.518;2023-02-21T10:28:18;26.90;72.80
20726;DHT22;10524;48.132;8.518;2023-02-21T10:30:46;26.90;71.30
20726;DHT22;10524;48.132;8.518;2023-02-21T10:33:13;26.00;70.90
20726;DHT22;10524;48.132;8.518;2023-02-21T10:35:38;25.10;71.00
20726;DHT22;10524;48.132;8.518;2023-02-21T10:38:11;23.90;73.30
20726;DHT22;10524;48.132;8.518;2023-02-21T10:40:50;23.80;73.90
20726;DHT22;10524;48.132;8.518;2023-02-21T10:43:37;24.90;73.10
20726;DHT22;10524;48.132;8.518;2023-02-21T10:46:24;25.00;71.20
20726;DHT22;10524;48.132;8.518;2023-02-21T10:48:55;25.40;71.60
20726;DHT22;10524;48.132;8.518;2023-02-21T10:51:32;25.50;71.80
20726;DHT22;10524;48.132;8.518;2023-02-21T10:54:21;26.10;72.30
20726;DHT22;10524;48.132;8.518;2023-02-21T10:56:48;25.40;71.20
20726;DHT22;10524;48.132;8.518;2023-02-21T10:59:39;24.90;72.00
20726;DHT22;10524;48.132;8.518;2023-02-21T11:02:30;24.00;71.70
20726;DHT22;10524;48.132;8.518;2023-02-21T11:05:13;24.40;69.10
20726;DHT22;10524;48.132;8.518;2023-02-21T11:07:41;23.40;68.00
20726;DHT22;10524;48.132;8.518;2023-02-21T11:10:31;24.40;69.70
20726;DHT22;10524;48.132;8.518;2023-02-21T11:13:19;23.90;64.10
20726;DHT22;10524;48.132;8.518;2023-02-21T11:15:45;23.10;66.40
20726;DHT22;10524;48.132;8.518;2023-02-21T11:18:37;23.70;65.60
20726;DHT22;10524;48.132;8.518;2023-02-21T11:21:14;23.40;68.30
20726;DHT22;10524;48.132;8.518;2023-02-21T11:24:01;23.40;67.50
20726;DHT22;10524;48.132;8.518;2023-02-21T11:29:13;23.80;67.50
20726;DHT22;10524;48.132;8.518;2023-02-21T11:31:39;23.60;68.50
20726;DHT22;10524;48.132;8.518;2023-02-21T11:34:08;23.50;65.60
20726;DHT22;10524;48.132;8.518;2023-02-21T11:36:39;23.60;67.10
20726;DHT22;10524;48.132;8.518;2023-02-21T11:39:18;23.90;67.80
20726;DHT22;10524;48.132;8.518;2023-02-21T11:41:51;24.50;67.40
20726;DHT22;10524;48.132;8.518;2023-02-21T11:44:34;24.70;67.20
20726;DHT22;10524;48.132;8.518;2023-02-21T11:47:21;24.90;67.70
20726;DHT22;10524;48.132;8.518;2023-02-21T11:50:07;25.40;67.80
20726;DHT22;10524;48.132;8.518;2023-02-21T11:55:17;24.90;67.90
20726;DHT22;10524;48.132;8.518;2023-02-21T12:00:49;25.00;66.20
20726;DHT22;10524;48.132;8.518;2023-02-21T12:03:45;25.20;66.60
20726;DHT22;10524;48.132;8.518;2023-02-21T12:07:25;25.50;65.30
20726;DHT22;10524;48.132;8.518;2023-02-21T12:12:44;26.40;64.90
20726;DHT22;10524;48.132;8.518;2023-02-21T12:15:34;26.70;65.30
20726;DHT22;10524;48.132;8.518;2023-02-21T12:18:28;25.70;64.40
20726;DHT22;10524;48.132;8.518;2023-02-21T12:24:00;26.30;64.60
20726;DHT22;10524;48.132;8.518;2023-02-21T12:27:00;26.70;64.00
20726;DHT22;10524;48.132;8.518;2023-02-21T12:38:04;29.20;62.70
20726;DHT22;10524;48.132;8.518;2023-02-21T12:40:40;29.10;62.90
20726;DHT22;10524;48.132;8.518;2023-02-21T12:45:48;26.60;64.10
20726;DHT22;10524;48.132;8.518;2023-02-21T12:48:36;27.10;63.70
20726;DHT22;10524;48.132;8.518;2023-02-21T12:51:10;27.20;63.50
20726;DHT22;10524;48.132;8.518;2023-02-21T13:01:34;26.20;65.20
20726;DHT22;10524;48.132;8.518;2023-02-21T13:04:19;26.90;63.80
20726;DHT22;10524;48.132;8.518;2023-02-21T13:07:01;26.50;64.80
20726;DHT22;10524;48.132;8.518;2023-02-21T13:09:33;24.80;65.60
20726;DHT22;10524;48.132;8.518;2023-02-21T13:12:11;21.40;67.50
20726;DHT22;10524;48.132;8.518;2023-02-21T13:17:15;17.50;73.50
20726;DHT22;10524;48.132;8.518;2023-02-21T13:28:14;15.70;78.70
20726;DHT22;10524;48.132;8.518;2023-02-21T13:30:45;15.70;79.20
20726;DHT22;10524;48.132;8.518;2023-02-21T13:35:57;15.60;79.70
20726;DHT22;10524;48.132;8.518;2023-02-21T13:38:26;15.50;79.40
20726;DHT22;10524;48.132;8.518;2023-02-21T13:41:07;15.40;79.30
20726;DHT22;10524;48.132;8.518;2023-02-21T13:43:35;15.30;80.90
20726;DHT22;10524;48.132;8.518;2023-02-21T14:11:14;15.40;80.40
20726;DHT22;10524;48.132;8.518;2023-02-21T14:13:48;15.20;81.20
20726;DHT22;10524;48.132;8.518;2023-02-21T14:16:21;15.20;82.50
20726;DHT22;10524;48.132;8.518;2023-02-21T14:18:58;15.10;82.30
20726;DHT22;10524;48.132;8.518;2023-02-21T14:24:14;15.20;83.70
20726;DHT22;10524;48.132;8.518;2023-02-21T14:32:33;15.10;83.30
20726;DHT22;10524;48.132;8.518;2023-02-21T14:35:00;15.20;84.80
20726;DHT22;10524;48.132;8.518;2023-02-21T14:45:34;15.20;85.70
20726;DHT22;10524;48.132;8.518;2023-02-21T15:01:46;14.60;87.80
20726;DHT22;10524;48.132;8.518;2023-02-21T15:09:28;14.70;88.10
20726;DHT22;10524;48.132;8.518;2023-02-21T15:11:54;14.70;88.60
20726;DHT22;10524;48.132;8.518;2023-02-21T15:14:27;14.70;89.50
20726;DHT22;10524;48.132;8.518;2023-02-21T15:16:59;14.70;88.80
20726;DHT22;10524;48.132;8.518;2023-02-21T15:19:32;14.40;89.30
20726;DHT22;10524;48.132;8.518;2023-02-21T15:22:17;14.40;89.80
20726;DHT22;10524;48.132;8.518;2023-02-21T15:27:52;14.40;90.60
20726;DHT22;10524;48.132;8.518;2023-02-21T15:30:19;14.40;90.40
20726;DHT22;10524;48.132;8.518;2023-02-21T15:35:35;14.10;91.00
20726;DHT22;10524;48.132;8.518;2023-02-21T15:38:05;14.00;91.10
20726;DHT22;10524;48.132;8.518;2023-02-21T15:40:32;14.00;91.10
20726;DHT22;10524;48.132;8.518;2023-02-21T15:43:00;13.90;91.30
20726;DHT22;10524;48.132;8.518;2023-02-21T15:45:43;13.90;91.40
20726;DHT22;10524;48.132;8.518;2023-02-21T15:48:09;13.70;91.70
20726;DHT22;10524;48.132;8.518;2023-02-21T15:50:40;13.40;91.90
20726;DHT22;10524;48.132;8.518;2023-02-21T15:53:21;13.30;92.20
20726;DHT22;10524;48.132;8.518;2023-02-21T15:55:48;13.10;92.50
20726;DHT22;10524;48.132;8.518;2023-02-21T15:58:18;12.90;92.60
20726;DHT22;10524;48.132;8.518;2023-02-21T16:00:46;12.80;92.90
20726;DHT22;10524;48.132;8.518;2023-02-21T16:06:21;12.50;92.70
20726;DHT22;10524;48.132;8.518;2023-02-21T16:11:41;12.20;93.10
20726;DHT22;10524;48.132;8.518;2023-02-21T16:16:51;11.70;93.80
20726;DHT22;10524;48.132;8.518;2023-02-21T16:19:22;11.50;94.00
20726;DHT22;10524;48.132;8.518;2023-02-21T16:21:48;11.30;94.70
20726;DHT22;10524;48.132;8.518;2023-02-21T16:27:08;10.80;95.10
20726;DHT22;10524;48.132;8.518;2023-02-21T16:29:34;10.60;95.50
20726;DHT22;10524;48.132;8.518;2023-02-21T16:32:00;10.40;95.70
20726;DHT22;10524;48.132;8.518;2023-02-21T16:34:30;10.20;96.00
20726;DHT22;10524;48.132;8.518;2023-02-21T16:37:01;10.00;96.30
20726;DHT22;10524;48.132;8.518;2023-02-21T16:39:29;9.80;96.90
20726;DHT22;10524;48.132;8.518;2023-02-21T16:41:55;9.60;96.90
20726;DHT22;10524;48.132;8.518;2023-02-21T16:44:21;9.40;97.70
20726;DHT22;10524;48.132;8.518;2023-02-21T16:46:50;9.20;99.20
20726;DHT22;10524;48.132;8.518;2023-02-21T16:49:15;9.10;99.80
20726;DHT22;10524;48.132;8.518;2023-02-21T16:51:41;8.90;99.90
20726;DHT22;10524;48.132;8.518;2023-02-21T16:54:08;8.70;99.90
20726;DHT22;10524;48.132;8.518;2023-02-21T16:56:35;8.50;99.90
20726;DHT22;10524;48.132;8.518;2023-02-21T16:59:08;8.30;99.90
20726;DHT22;10524;48.132;8.518;2023-02-21T17:01:35;8.10;99.90
20726;DHT22;10524;48.132;8.518;2023-02-21T17:04:02;7.90;99.90
20726;DHT22;10524;48.132;8.518;2023-02-21T17:06:29;7.70;99.90
20726;DHT22;10524;48.132;8.518;2023-02-21T17:08:56;7.50;99.90
20726;DHT22;10524;48.132;8.518;2023-02-21T17:11:23;7.30;99.90
20726;DHT22;10524;48.132;8.518;2023-02-21T17:13:50;7.20;99.90
20726;DHT22;10524;48.132;8.518;2023-02-21T17:16:16;7.00;99.90
20726;DHT22;10524;48.132;8.518;2023-02-21T17:18:43;6.70;99.90
20726;DHT22;10524;48.132;8.518;2023-02-21T17:21:09;6.50;99.90
20726;DHT22;10524;48.132;8.518;2023-02-21T17:23:35;6.30;99.90
20726;DHT22;10524;48.132;8.518;2023-02-21T17:26:00;6.20;99.90
20726;DHT22;10524;48.132;8.518;2023-02-21T17:28:26;6.10;99.90
20726;DHT22;10524;48.132;8.518;2023-02-21T17:30:52;5.90;99.90
20726;DHT22;10524;48.132;8.518;2023-02-21T17:33:17;5.80;99.90
20726;DHT22;10524;48.132;8.518;2023-02-21T17:35:43;5.60;99.90
20726;DHT22;10524;48.132;8.518;2023-02-21T17:38:09;5.50;99.90
20726;DHT22;10524;48.132;8.518;2023-02-21T17:40:34;5.40;99.90
20726;DHT22;10524;48.132;8.518;2023-02-21T17:43:00;5.30;99.90
20726;DHT22;10524;48.132;8.518;2023-02-21T17:45:25;5.30;99.90
20726;DHT22;10524;48.132;8.518;2023-02-21T17:47:51;5.20;99.90
20726;DHT22;10524;48.132;8.518;2023-02-21T17:50:19;5.10;99.90
20726;DHT22;10524;48.132;8.518;2023-02-21T17:52:45;5.30;99.90
20726;DHT22;10524;48.132;8.518;2023-02-21T17:55:17;5.40;99.90
20726;DHT22;10524;48.132;8.518;2023-02-21T17:57:43;5.20;99.90
20726;DHT22;10524;48.132;8.518;2023-02-21T18:00:17;5.00;99.90
20726;DHT22;10524;48.132;8.518;2023-02-21T18:02:46;4.70;99.90
20726;DHT22;10524;48.132;8.518;2023-02-21T18:05:11;4.50;99.90
20726;DHT22;10524;48.132;8.518;2023-02-21T18:07:37;4.40;99.90
20726;DHT22;10524;48.132;8.518;2023-02-21T18:10:03;4.20;99.90
20726;DHT22;10524;48.132;8.518;2023-02-21T18:12:30;4.00;99.90
20726;DHT22;10524;48.132;8.518;2023-02-21T18:14:58;3.80;99.90
20726;DHT22;10524;48.132;8.518;2023-02-21T18:17:23;3.60;99.90
20726;DHT22;10524;48.132;8.518;2023-02-21T18:19:49;3.50;99.90
20726;DHT22;10524;48.132;8.518;2023-02-21T18:22:15;3.40;99.90
20726;DHT22;10524;48.132;8.518;2023-02-21T18:24:41;3.30;99.90
20726;DHT22;10524;48.132;8.518;2023-02-21T18:27:07;3.20;99.90
20726;DHT22;10524;48.132;8.518;2023-02-21T18:29:32;3.00;99.90
20726;DHT22;10524;48.132;8.518;2023-02-21T18:31:58;2.90;99.90
20726;DHT22;10524;48.132;8.518;2023-02-21T18:34:24;2.80;99.90
20726;DHT22;10524;48.132;8.518;2023-02-21T18:36:52;2.70;99.90
20726;DHT22;10524;48.132;8.518;2023-02-21T18:39:20;2.60;99.90
20726;DHT22;10524;48.132;8.518;2023-02-21T18:41:46;2.60;99.90
20726;DHT22;10524;48.132;8.518;2023-02-21T18:44:12;2.50;99.90
20726;DHT22;10524;48.132;8.518;2023-02-21T18:46:38;2.60;99.90
20726;DHT22;10524;48.132;8.518;2023-02-21T18:49:09;2.60;99.90
20726;DHT22;10524;48.132;8.518;2023-02-21T18:51:35;2.50;99.90
20726;DHT22;10524;48.132;8.518;2023-02-21T18:54:02;2.40;99.90
20726;DHT22;10524;48.132;8.518;2023-02-21T18:56:27;2.30;99.90
20726;DHT22;10524;48.132;8.518;2023-02-21T18:58:53;2.20;99.90
20726;DHT22;10524;48.132;8.518;2023-02-21T19:01:20;2.10;99.90